sensor_id;sensor_type;location;lat;lon;timestamp;P1;durP1;ratioP1;P2;durP2;ratioP2
65187;SDS011;51775;51.148;6.950;2022-07-30T00:02:15;2.10;;;1.35;;
65187;SDS011;51775;51.148;6.950;2022-07-30T00:04:41;2.10;;;1.40;;
65187;SDS011;51775;51.148;6.950;2022-07-30T00:07:07;1.98;;;1.20;;
65187;SDS011;51775;51.148;6.950;2022-07-30T00:09:33;1.98;;;1.30;;
65187;SDS011;51775;51.148;6.950;2022-07-30T00:11:58;1.90;;;1.20;;
65187;SDS011;51775;51.148;6.950;2022-07-30T00:14:23;1.80;;;1.20;;
65187;SDS011;51775;51.148;6.950;2022-07-30T00:16:49;1.92;;;1.20;;
65187;SDS011;51775;51.148;6.950;2022-07-30T00:19:15;2.50;;;1.33;;
65187;SDS011;51775;51.148;6.950;2022-07-30T00:21:40;1.90;;;1.30;;
65187;SDS011;51775;51.148;6.950;2022-07-30T00:24:06;2.15;;;1.33;;
65187;SDS011;51775;51.148;6.950;2022-07-30T00:26:31;1.85;;;1.42;;
65187;SDS011;51775;51.148;6.950;2022-07-30T00:28:57;2.13;;;1.40;;
65187;SDS011;51775;51.148;6.950;2022-07-30T00:31:22;2.05;;;1.40;;
65187;SDS011;51775;51.148;6.950;2022-07-30T00:33:47;1.88;;;1.40;;
65187;SDS011;51775;51.148;6.950;2022-07-30T00:36:13;1.90;;;1.35;;
65187;SDS011;51775;51.148;6.950;2022-07-30T00:38:38;2.50;;;1.40;;
65187;SDS011;51775;51.148;6.950;2022-07-30T00:41:03;2.60;;;1.40;;
65187;SDS011;51775;51.148;6.950;2022-07-30T00:43:29;2.30;;;1.50;;
65187;SDS011;51775;51.148;6.950;2022-07-30T00:45:54;2.28;;;1.27;;
65187;SDS011;51775;51.148;6.950;2022-07-30T00:48:19;2.05;;;1.40;;
65187;SDS011;51775;51.148;6.950;2022-07-30T00:50:44;2.35;;;1.30;;
65187;SDS011;51775;51.148;6.950;2022-07-30T00:53:10;1.85;;;1.30;;
65187;SDS011;51775;51.148;6.950;2022-07-30T00:55:35;2.83;;;1.40;;
65187;SDS011;51775;51.148;6.950;2022-07-30T00:58:01;2.50;;;1.40;;
65187;SDS011;51775;51.148;6.950;2022-07-30T01:00:26;2.38;;;1.50;;
65187;SDS011;51775;51.148;6.950;2022-07-30T01:02:51;1.70;;;1.27;;
65187;SDS011;51775;51.148;6.950;2022-07-30T01:05:17;2.15;;;1.30;;
65187;SDS011;51775;51.148;6.950;2022-07-30T01:07:42;1.88;;;1.38;;
65187;SDS011;51775;51.148;6.950;2022-07-30T01:10:08;1.88;;;1.30;;
65187;SDS011;51775;51.148;6.950;2022-07-30T01:12:36;2.35;;;1.30;;
65187;SDS011;51775;51.148;6.950;2022-07-30T01:15:02;1.75;;;1.27;;
65187;SDS011;51775;51.148;6.950;2022-07-30T01:17:30;1.70;;;1.27;;
65187;SDS011;51775;51.148;6.950;2022-07-30T01:19:59;2.22;;;1.55;;
65187;SDS011;51775;51.148;6.950;2022-07-30T01:30:26;1.80;;;1.30;;
65187;SDS011;51775;51.148;6.950;2022-07-30T01:32:53;2.00;;;1.38;;
65187;SDS011;51775;51.148;6.950;2022-07-30T01:35:21;2.28;;;1.42;;
65187;SDS011;51775;51.148;6.950;2022-07-30T01:37:48;2.10;;;1.48;;
65187;SDS011;51775;51.148;6.950;2022-07-30T01:40:16;2.10;;;1.33;;
65187;SDS011;51775;51.148;6.950;2022-07-30T01:42:42;2.03;;;1.40;;
65187;SDS011;51775;51.148;6.950;2022-07-30T01:45:08;2.03;;;1.30;;
65187;SDS011;51775;51.148;6.950;2022-07-30T01:47:37;2.10;;;1.50;;
65187;SDS011;51775;51.148;6.950;2022-07-30T01:50:04;1.90;;;1.35;;
65187;SDS011;51775;51.148;6.950;2022-07-30T01:52:33;2.10;;;1.42;;
65187;SDS011;51775;51.148;6.950;2022-07-30T01:55:01;1.80;;;1.23;;
65187;SDS011;51775;51.148;6.950;2022-07-30T01:57:27;2.33;;;1.60;;
65187;SDS011;51775;51.148;6.950;2022-07-30T01:59:56;2.13;;;1.60;;
65187;SDS011;51775;51.148;6.950;2022-07-30T02:02:25;2.30;;;1.42;;
65187;SDS011;51775;51.148;6.950;2022-07-30T02:04:51;1.92;;;1.30;;
65187;SDS011;51775;51.148;6.950;2022-07-30T02:07:17;1.98;;;1.40;;
65187;SDS011;51775;51.148;6.950;2022-07-30T02:09:54;2.20;;;1.40;;
65187;SDS011;51775;51.148;6.950;2022-07-30T02:12:23;2.63;;;1.90;;
65187;SDS011;51775;51.148;6.950;2022-07-30T02:15:02;1.90;;;1.30;;
65187;SDS011;51775;51.148;6.950;2022-07-30T02:17:45;3.08;;;1.50;;
65187;SDS011;51775;51.148;6.950;2022-07-30T02:20:18;2.10;;;1.50;;
65187;SDS011;51775;51.148;6.950;2022-07-30T02:22:48;2.72;;;1.60;;
65187;SDS011;51775;51.148;6.950;2022-07-30T02:25:19;2.40;;;1.52;;
65187;SDS011;51775;51.148;6.950;2022-07-30T02:27:45;2.25;;;1.40;;
65187;SDS011;51775;51.148;6.950;2022-07-30T02:30:14;2.55;;;1.65;;
65187;SDS011;51775;51.148;6.950;2022-07-30T02:32:40;2.20;;;1.50;;
65187;SDS011;51775;51.148;6.950;2022-07-30T02:35:09;1.90;;;1.30;;
65187;SDS011;51775;51.148;6.950;2022-07-30T02:37:38;2.00;;;1.48;;
65187;SDS011;51775;51.148;6.950;2022-07-30T02:40:06;2.60;;;1.52;;
65187;SDS011;51775;51.148;6.950;2022-07-30T02:42:33;2.50;;;1.48;;
65187;SDS011;51775;51.148;6.950;2022-07-30T02:44:58;2.65;;;1.55;;
65187;SDS011;51775;51.148;6.950;2022-07-30T02:47:25;2.63;;;1.75;;
65187;SDS011;51775;51.148;6.950;2022-07-30T02:49:51;2.53;;;1.60;;
65187;SDS011;51775;51.148;6.950;2022-07-30T02:52:18;2.25;;;1.52;;
65187;SDS011;51775;51.148;6.950;2022-07-30T02:54:45;1.60;;;1.30;;
65187;SDS011;51775;51.148;6.950;2022-07-30T02:57:12;2.30;;;1.40;;
65187;SDS011;51775;51.148;6.950;2022-07-30T02:59:40;2.17;;;1.65;;
65187;SDS011;51775;51.148;6.950;2022-07-30T03:02:07;2.40;;;1.50;;
65187;SDS011;51775;51.148;6.950;2022-07-30T03:04:34;2.17;;;1.50;;
65187;SDS011;51775;51.148;6.950;2022-07-30T03:07:00;2.72;;;1.70;;
65187;SDS011;51775;51.148;6.950;2022-07-30T03:09:26;2.15;;;1.50;;
65187;SDS011;51775;51.148;6.950;2022-07-30T03:11:52;2.47;;;1.60;;
65187;SDS011;51775;51.148;6.950;2022-07-30T03:14:20;2.33;;;1.52;;
65187;SDS011;51775;51.148;6.950;2022-07-30T03:16:46;2.40;;;1.58;;
65187;SDS011;51775;51.148;6.950;2022-07-30T03:19:15;2.33;;;1.52;;
65187;SDS011;51775;51.148;6.950;2022-07-30T03:21:44;2.03;;;1.40;;
65187;SDS011;51775;51.148;6.950;2022-07-30T03:24:10;2.45;;;1.60;;
65187;SDS011;51775;51.148;6.950;2022-07-30T03:26:37;2.42;;;1.60;;
65187;SDS011;51775;51.148;6.950;2022-07-30T03:29:04;2.15;;;1.50;;
65187;SDS011;51775;51.148;6.950;2022-07-30T03:31:31;2.30;;;1.50;;
65187;SDS011;51775;51.148;6.950;2022-07-30T03:33:57;2.42;;;1.50;;
65187;SDS011;51775;51.148;6.950;2022-07-30T03:36:22;2.53;;;1.73;;
65187;SDS011;51775;51.148;6.950;2022-07-30T03:38:48;2.42;;;1.70;;
65187;SDS011;51775;51.148;6.950;2022-07-30T03:41:15;2.10;;;1.40;;
65187;SDS011;51775;51.148;6.950;2022-07-30T03:43:40;2.90;;;1.50;;
65187;SDS011;51775;51.148;6.950;2022-07-30T03:46:06;2.22;;;1.40;;
65187;SDS011;51775;51.148;6.950;2022-07-30T03:48:33;2.30;;;1.50;;
65187;SDS011;51775;51.148;6.950;2022-07-30T03:51:00;2.45;;;1.60;;
65187;SDS011;51775;51.148;6.950;2022-07-30T03:53:27;2.33;;;1.60;;
65187;SDS011;51775;51.148;6.950;2022-07-30T03:55:53;2.20;;;1.60;;
65187;SDS011;51775;51.148;6.950;2022-07-30T03:58:19;2.20;;;1.65;;
65187;SDS011;51775;51.148;6.950;2022-07-30T04:00:47;2.35;;;1.50;;
65187;SDS011;51775;51.148;6.950;2022-07-30T04:03:27;2.28;;;1.40;;
65187;SDS011;51775;51.148;6.950;2022-07-30T04:05:54;2.35;;;1.63;;
65187;SDS011;51775;51.148;6.950;2022-07-30T04:08:19;2.25;;;1.50;;
65187;SDS011;51775;51.148;6.950;2022-07-30T04:10:45;1.88;;;1.30;;
65187;SDS011;51775;51.148;6.950;2022-07-30T04:13:11;2.10;;;1.60;;
65187;SDS011;51775;51.148;6.950;2022-07-30T04:15:40;2.03;;;1.50;;
65187;SDS011;51775;51.148;6.950;2022-07-30T04:18:10;4.07;;;1.58;;
65187;SDS011;51775;51.148;6.950;2022-07-30T04:20:39;2.50;;;1.50;;
65187;SDS011;51775;51.148;6.950;2022-07-30T04:23:07;2.58;;;1.60;;
65187;SDS011;51775;51.148;6.950;2022-07-30T04:25:33;2.30;;;1.58;;
65187;SDS011;51775;51.148;6.950;2022-07-30T04:27:59;2.38;;;1.58;;
65187;SDS011;51775;51.148;6.950;2022-07-30T04:30:24;2.45;;;1.65;;
65187;SDS011;51775;51.148;6.950;2022-07-30T04:32:50;2.15;;;1.60;;
65187;SDS011;51775;51.148;6.950;2022-07-30T04:35:16;2.70;;;1.73;;
65187;SDS011;51775;51.148;6.950;2022-07-30T04:37:41;1.83;;;1.50;;
65187;SDS011;51775;51.148;6.950;2022-07-30T04:40:06;2.60;;;1.50;;
65187;SDS011;51775;51.148;6.950;2022-07-30T04:42:32;1.90;;;1.50;;
65187;SDS011;51775;51.148;6.950;2022-07-30T04:44:58;2.13;;;1.58;;
65187;SDS011;51775;51.148;6.950;2022-07-30T04:47:23;3.85;;;1.60;;
65187;SDS011;51775;51.148;6.950;2022-07-30T04:49:49;2.13;;;1.50;;
65187;SDS011;51775;51.148;6.950;2022-07-30T04:52:16;2.10;;;1.45;;
65187;SDS011;51775;51.148;6.950;2022-07-30T04:54:47;2.22;;;1.48;;
65187;SDS011;51775;51.148;6.950;2022-07-30T04:57:16;2.10;;;1.48;;
65187;SDS011;51775;51.148;6.950;2022-07-30T04:59:42;2.33;;;1.70;;
65187;SDS011;51775;51.148;6.950;2022-07-30T05:02:08;2.65;;;1.80;;
65187;SDS011;51775;51.148;6.950;2022-07-30T05:04:35;1.88;;;1.40;;
65187;SDS011;51775;51.148;6.950;2022-07-30T05:07:02;1.83;;;1.38;;
65187;SDS011;51775;51.148;6.950;2022-07-30T05:09:28;2.70;;;1.48;;
65187;SDS011;51775;51.148;6.950;2022-07-30T05:11:54;1.90;;;1.50;;
65187;SDS011;51775;51.148;6.950;2022-07-30T05:14:20;2.20;;;1.50;;
65187;SDS011;51775;51.148;6.950;2022-07-30T05:16:47;2.00;;;1.40;;
65187;SDS011;51775;51.148;6.950;2022-07-30T05:19:13;2.47;;;1.67;;
65187;SDS011;51775;51.148;6.950;2022-07-30T05:21:38;2.05;;;1.52;;
65187;SDS011;51775;51.148;6.950;2022-07-30T05:24:04;3.05;;;1.60;;
65187;SDS011;51775;51.148;6.950;2022-07-30T05:26:30;2.40;;;1.60;;
65187;SDS011;51775;51.148;6.950;2022-07-30T05:28:55;2.28;;;1.60;;
65187;SDS011;51775;51.148;6.950;2022-07-30T05:31:20;2.30;;;1.50;;
65187;SDS011;51775;51.148;6.950;2022-07-30T05:33:46;2.38;;;1.60;;
65187;SDS011;51775;51.148;6.950;2022-07-30T05:36:11;4.63;;;1.75;;
65187;SDS011;51775;51.148;6.950;2022-07-30T05:38:36;2.35;;;1.70;;
65187;SDS011;51775;51.148;6.950;2022-07-30T05:41:02;2.85;;;1.63;;
65187;SDS011;51775;51.148;6.950;2022-07-30T05:43:27;2.20;;;1.63;;
65187;SDS011;51775;51.148;6.950;2022-07-30T05:45:52;4.03;;;1.50;;
65187;SDS011;51775;51.148;6.950;2022-07-30T05:48:18;3.38;;;1.75;;
65187;SDS011;51775;51.148;6.950;2022-07-30T05:50:43;2.70;;;1.80;;
65187;SDS011;51775;51.148;6.950;2022-07-30T05:53:08;2.45;;;1.80;;
65187;SDS011;51775;51.148;6.950;2022-07-30T05:55:34;2.60;;;1.95;;
65187;SDS011;51775;51.148;6.950;2022-07-30T05:57:59;2.60;;;1.80;;
65187;SDS011;51775;51.148;6.950;2022-07-30T06:00:24;2.42;;;1.70;;
65187;SDS011;51775;51.148;6.950;2022-07-30T06:02:49;2.85;;;1.80;;
65187;SDS011;51775;51.148;6.950;2022-07-30T06:05:15;3.88;;;2.00;;
65187;SDS011;51775;51.148;6.950;2022-07-30T06:07:40;4.05;;;2.00;;
65187;SDS011;51775;51.148;6.950;2022-07-30T06:10:06;4.05;;;2.20;;
65187;SDS011;51775;51.148;6.950;2022-07-30T06:12:31;3.10;;;2.00;;
65187;SDS011;51775;51.148;6.950;2022-07-30T06:14:57;3.60;;;2.38;;
65187;SDS011;51775;51.148;6.950;2022-07-30T06:17:23;5.07;;;2.42;;
65187;SDS011;51775;51.148;6.950;2022-07-30T06:19:48;3.83;;;2.47;;
65187;SDS011;51775;51.148;6.950;2022-07-30T06:22:13;3.92;;;2.50;;
65187;SDS011;51775;51.148;6.950;2022-07-30T06:24:38;5.35;;;2.80;;
65187;SDS011;51775;51.148;6.950;2022-07-30T06:27:04;3.85;;;2.58;;
65187;SDS011;51775;51.148;6.950;2022-07-30T06:29:29;3.80;;;2.72;;
65187;SDS011;51775;51.148;6.950;2022-07-30T06:31:55;4.28;;;2.40;;
65187;SDS011;51775;51.148;6.950;2022-07-30T06:34:20;4.18;;;2.30;;
65187;SDS011;51775;51.148;6.950;2022-07-30T06:36:46;4.35;;;2.83;;
65187;SDS011;51775;51.148;6.950;2022-07-30T06:39:11;5.60;;;2.90;;
65187;SDS011;51775;51.148;6.950;2022-07-30T06:41:36;5.80;;;3.38;;
65187;SDS011;51775;51.148;6.950;2022-07-30T06:44:02;7.10;;;3.92;;
65187;SDS011;51775;51.148;6.950;2022-07-30T06:46:27;6.18;;;3.90;;
65187;SDS011;51775;51.148;6.950;2022-07-30T06:48:52;5.78;;;3.50;;
65187;SDS011;51775;51.148;6.950;2022-07-30T06:51:18;8.18;;;3.83;;
65187;SDS011;51775;51.148;6.950;2022-07-30T06:53:43;6.53;;;4.28;;
65187;SDS011;51775;51.148;6.950;2022-07-30T06:56:08;9.63;;;4.60;;
65187;SDS011;51775;51.148;6.950;2022-07-30T06:58:34;7.82;;;5.18;;
65187;SDS011;51775;51.148;6.950;2022-07-30T07:01:00;10.18;;;5.30;;
65187;SDS011;51775;51.148;6.950;2022-07-30T07:03:25;8.82;;;5.45;;
65187;SDS011;51775;51.148;6.950;2022-07-30T07:05:50;8.45;;;5.65;;
65187;SDS011;51775;51.148;6.950;2022-07-30T07:08:19;9.45;;;5.53;;
65187;SDS011;51775;51.148;6.950;2022-07-30T07:10:44;10.85;;;6.10;;
65187;SDS011;51775;51.148;6.950;2022-07-30T07:13:10;11.55;;;6.10;;
65187;SDS011;51775;51.148;6.950;2022-07-30T07:15:41;9.85;;;6.30;;
65187;SDS011;51775;51.148;6.950;2022-07-30T07:18:07;10.57;;;6.32;;
65187;SDS011;51775;51.148;6.950;2022-07-30T07:20:32;10.95;;;6.30;;
65187;SDS011;51775;51.148;6.950;2022-07-30T07:22:59;9.82;;;6.50;;
65187;SDS011;51775;51.148;6.950;2022-07-30T07:25:26;10.45;;;6.30;;
65187;SDS011;51775;51.148;6.950;2022-07-30T07:27:57;9.13;;;6.32;;
65187;SDS011;51775;51.148;6.950;2022-07-30T07:30:30;10.27;;;6.00;;
65187;SDS011;51775;51.148;6.950;2022-07-30T07:32:56;7.70;;;5.63;;
65187;SDS011;51775;51.148;6.950;2022-07-30T07:35:23;11.75;;;6.22;;
65187;SDS011;51775;51.148;6.950;2022-07-30T07:37:48;9.45;;;5.47;;
65187;SDS011;51775;51.148;6.950;2022-07-30T07:40:14;8.85;;;5.40;;
65187;SDS011;51775;51.148;6.950;2022-07-30T07:42:40;8.75;;;5.30;;
65187;SDS011;51775;51.148;6.950;2022-07-30T07:45:05;8.05;;;5.13;;
65187;SDS011;51775;51.148;6.950;2022-07-30T07:47:41;9.65;;;4.80;;
65187;SDS011;51775;51.148;6.950;2022-07-30T07:50:10;9.07;;;4.93;;
65187;SDS011;51775;51.148;6.950;2022-07-30T07:52:41;7.15;;;4.55;;
65187;SDS011;51775;51.148;6.950;2022-07-30T07:55:07;6.43;;;4.47;;
65187;SDS011;51775;51.148;6.950;2022-07-30T07:57:40;6.88;;;4.75;;
65187;SDS011;51775;51.148;6.950;2022-07-30T08:00:08;6.85;;;4.35;;
65187;SDS011;51775;51.148;6.950;2022-07-30T08:02:35;7.03;;;4.57;;
65187;SDS011;51775;51.148;6.950;2022-07-30T08:05:01;8.38;;;4.68;;
65187;SDS011;51775;51.148;6.950;2022-07-30T08:07:28;10.70;;;4.28;;
65187;SDS011;51775;51.148;6.950;2022-07-30T08:09:53;6.47;;;4.05;;
65187;SDS011;51775;51.148;6.950;2022-07-30T08:12:18;6.03;;;4.00;;
65187;SDS011;51775;51.148;6.950;2022-07-30T08:14:44;6.50;;;4.07;;
65187;SDS011;51775;51.148;6.950;2022-07-30T08:17:09;5.70;;;3.83;;
65187;SDS011;51775;51.148;6.950;2022-07-30T08:19:34;6.07;;;3.92;;
65187;SDS011;51775;51.148;6.950;2022-07-30T08:22:03;5.63;;;3.22;;
65187;SDS011;51775;51.148;6.950;2022-07-30T08:24:30;6.05;;;3.80;;
65187;SDS011;51775;51.148;6.950;2022-07-30T08:26:59;5.28;;;3.58;;
65187;SDS011;51775;51.148;6.950;2022-07-30T08:29:30;4.97;;;3.55;;
65187;SDS011;51775;51.148;6.950;2022-07-30T08:31:57;5.13;;;3.60;;
65187;SDS011;51775;51.148;6.950;2022-07-30T08:34:23;5.47;;;3.63;;
65187;SDS011;51775;51.148;6.950;2022-07-30T08:36:48;4.65;;;3.60;;
65187;SDS011;51775;51.148;6.950;2022-07-30T08:39:13;4.32;;;3.28;;
65187;SDS011;51775;51.148;6.950;2022-07-30T08:41:39;5.18;;;3.25;;
65187;SDS011;51775;51.148;6.950;2022-07-30T08:44:07;5.60;;;3.38;;
65187;SDS011;51775;51.148;6.950;2022-07-30T08:46:35;4.50;;;3.17;;
65187;SDS011;51775;51.148;6.950;2022-07-30T08:49:05;4.43;;;2.92;;
65187;SDS011;51775;51.148;6.950;2022-07-30T08:51:34;4.65;;;3.00;;
65187;SDS011;51775;51.148;6.950;2022-07-30T08:54:00;4.18;;;3.10;;
65187;SDS011;51775;51.148;6.950;2022-07-30T08:56:27;5.55;;;3.50;;
65187;SDS011;51775;51.148;6.950;2022-07-30T08:58:58;5.38;;;3.05;;
65187;SDS011;51775;51.148;6.950;2022-07-30T09:01:24;4.45;;;2.70;;
65187;SDS011;51775;51.148;6.950;2022-07-30T09:03:49;4.63;;;2.92;;
65187;SDS011;51775;51.148;6.950;2022-07-30T09:06:14;4.78;;;2.75;;
65187;SDS011;51775;51.148;6.950;2022-07-30T09:08:40;4.13;;;2.97;;
65187;SDS011;51775;51.148;6.950;2022-07-30T09:11:10;5.75;;;2.85;;
65187;SDS011;51775;51.148;6.950;2022-07-30T09:13:41;4.70;;;2.80;;
65187;SDS011;51775;51.148;6.950;2022-07-30T09:16:17;3.45;;;2.50;;
65187;SDS011;51775;51.148;6.950;2022-07-30T09:18:52;3.72;;;2.80;;
65187;SDS011;51775;51.148;6.950;2022-07-30T09:21:20;4.38;;;2.80;;
65187;SDS011;51775;51.148;6.950;2022-07-30T09:24:00;4.03;;;2.65;;
65187;SDS011;51775;51.148;6.950;2022-07-30T09:26:30;3.92;;;2.67;;
65187;SDS011;51775;51.148;6.950;2022-07-30T09:29:13;4.43;;;2.53;;
65187;SDS011;51775;51.148;6.950;2022-07-30T09:31:54;4.53;;;2.58;;
65187;SDS011;51775;51.148;6.950;2022-07-30T09:34:28;5.82;;;2.50;;
65187;SDS011;51775;51.148;6.950;2022-07-30T09:36:58;4.38;;;2.60;;
65187;SDS011;51775;51.148;6.950;2022-07-30T09:42:02;5.07;;;2.30;;
65187;SDS011;51775;51.148;6.950;2022-07-30T09:44:40;5.45;;;2.47;;
65187;SDS011;51775;51.148;6.950;2022-07-30T09:47:05;3.95;;;2.10;;
65187;SDS011;51775;51.148;6.950;2022-07-30T09:49:31;4.57;;;2.33;;
65187;SDS011;51775;51.148;6.950;2022-07-30T09:51:56;4.07;;;2.40;;
65187;SDS011;51775;51.148;6.950;2022-07-30T09:54:21;5.30;;;2.20;;
65187;SDS011;51775;51.148;6.950;2022-07-30T09:56:56;3.05;;;2.20;;
65187;SDS011;51775;51.148;6.950;2022-07-30T09:59:28;3.33;;;2.22;;
65187;SDS011;51775;51.148;6.950;2022-07-30T10:01:57;3.80;;;2.00;;
65187;SDS011;51775;51.148;6.950;2022-07-30T10:04:30;4.25;;;1.98;;
65187;SDS011;51775;51.148;6.950;2022-07-30T10:06:56;5.95;;;2.45;;
65187;SDS011;51775;51.148;6.950;2022-07-30T10:09:30;3.47;;;2.13;;
65187;SDS011;51775;51.148;6.950;2022-07-30T10:11:59;3.28;;;2.10;;
65187;SDS011;51775;51.148;6.950;2022-07-30T10:14:30;8.35;;;2.30;;
65187;SDS011;51775;51.148;6.950;2022-07-30T10:16:58;3.08;;;2.03;;
65187;SDS011;51775;51.148;6.950;2022-07-30T10:19:24;3.47;;;2.20;;
65187;SDS011;51775;51.148;6.950;2022-07-30T10:21:50;3.95;;;2.10;;
65187;SDS011;51775;51.148;6.950;2022-07-30T10:24:16;4.35;;;2.20;;
65187;SDS011;51775;51.148;6.950;2022-07-30T10:26:46;2.95;;;2.00;;
65187;SDS011;51775;51.148;6.950;2022-07-30T10:29:14;3.03;;;2.00;;
65187;SDS011;51775;51.148;6.950;2022-07-30T10:31:49;3.80;;;2.17;;
65187;SDS011;51775;51.148;6.950;2022-07-30T10:34:17;3.92;;;2.20;;
65187;SDS011;51775;51.148;6.950;2022-07-30T10:36:51;4.18;;;2.28;;
65187;SDS011;51775;51.148;6.950;2022-07-30T10:39:23;3.85;;;2.50;;
65187;SDS011;51775;51.148;6.950;2022-07-30T10:55:23;3.85;;;2.30;;
65187;SDS011;51775;51.148;6.950;2022-07-30T10:58:09;4.80;;;2.00;;
65187;SDS011;51775;51.148;6.950;2022-07-30T11:05:51;2.45;;;1.85;;
65187;SDS011;51775;51.148;6.950;2022-07-30T11:08:38;3.85;;;2.13;;
65187;SDS011;51775;51.148;6.950;2022-07-30T11:11:40;4.15;;;2.17;;
65187;SDS011;51775;51.148;6.950;2022-07-30T11:13:54;2.88;;;1.80;;
65187;SDS011;51775;51.148;6.950;2022-07-30T11:19:09;2.15;;;1.65;;
65187;SDS011;51775;51.148;6.950;2022-07-30T11:21:39;2.90;;;1.80;;
65187;SDS011;51775;51.148;6.950;2022-07-30T11:24:04;2.40;;;1.70;;
65187;SDS011;51775;51.148;6.950;2022-07-30T11:29:07;2.97;;;1.88;;
65187;SDS011;51775;51.148;6.950;2022-07-30T11:35:15;2.90;;;1.77;;
65187;SDS011;51775;51.148;6.950;2022-07-30T11:40:23;4.00;;;1.83;;
65187;SDS011;51775;51.148;6.950;2022-07-30T11:42:50;2.97;;;1.70;;
65187;SDS011;51775;51.148;6.950;2022-07-30T11:47:48;2.42;;;1.55;;
65187;SDS011;51775;51.148;6.950;2022-07-30T11:50:26;2.63;;;1.65;;
65187;SDS011;51775;51.148;6.950;2022-07-30T11:52:54;3.60;;;1.55;;
65187;SDS011;51775;51.148;6.950;2022-07-30T11:55:25;1.95;;;1.50;;
65187;SDS011;51775;51.148;6.950;2022-07-30T11:57:51;2.47;;;1.70;;
65187;SDS011;51775;51.148;6.950;2022-07-30T12:00:18;5.18;;;1.90;;
65187;SDS011;51775;51.148;6.950;2022-07-30T12:02:44;3.65;;;1.70;;
65187;SDS011;51775;51.148;6.950;2022-07-30T12:05:10;2.88;;;1.63;;
65187;SDS011;51775;51.148;6.950;2022-07-30T12:07:36;2.45;;;1.65;;
65187;SDS011;51775;51.148;6.950;2022-07-30T12:10:14;2.35;;;1.55;;
65187;SDS011;51775;51.148;6.950;2022-07-30T12:12:40;3.03;;;1.60;;
65187;SDS011;51775;51.148;6.950;2022-07-30T12:15:06;2.60;;;1.73;;
65187;SDS011;51775;51.148;6.950;2022-07-30T12:18:06;2.17;;;1.40;;
65187;SDS011;51775;51.148;6.950;2022-07-30T12:20:24;2.90;;;1.48;;
65187;SDS011;51775;51.148;6.950;2022-07-30T12:22:49;2.35;;;1.70;;
65187;SDS011;51775;51.148;6.950;2022-07-30T12:25:15;2.80;;;1.60;;
65187;SDS011;51775;51.148;6.950;2022-07-30T12:27:43;2.28;;;1.50;;
65187;SDS011;51775;51.148;6.950;2022-07-30T12:30:10;5.18;;;1.50;;
65187;SDS011;51775;51.148;6.950;2022-07-30T12:32:35;2.13;;;1.50;;
65187;SDS011;51775;51.148;6.950;2022-07-30T12:35:01;2.33;;;1.60;;
65187;SDS011;51775;51.148;6.950;2022-07-30T12:37:26;1.85;;;1.42;;
65187;SDS011;51775;51.148;6.950;2022-07-30T12:40:08;1.70;;;1.30;;
65187;SDS011;51775;51.148;6.950;2022-07-30T12:42:49;2.60;;;1.60;;
65187;SDS011;51775;51.148;6.950;2022-07-30T12:45:26;2.08;;;1.58;;
65187;SDS011;51775;51.148;6.950;2022-07-30T12:47:56;2.00;;;1.40;;
65187;SDS011;51775;51.148;6.950;2022-07-30T12:50:25;1.77;;;1.30;;
65187;SDS011;51775;51.148;6.950;2022-07-30T12:52:52;2.72;;;1.40;;
65187;SDS011;51775;51.148;6.950;2022-07-30T12:55:27;2.30;;;1.40;;
65187;SDS011;51775;51.148;6.950;2022-07-30T12:58:02;2.17;;;1.40;;
65187;SDS011;51775;51.148;6.950;2022-07-30T13:00:30;2.20;;;1.37;;
65187;SDS011;51775;51.148;6.950;2022-07-30T13:02:57;2.00;;;1.40;;
65187;SDS011;51775;51.148;6.950;2022-07-30T13:08:14;1.98;;;1.40;;
65187;SDS011;51775;51.148;6.950;2022-07-30T13:10:56;2.20;;;1.45;;
65187;SDS011;51775;51.148;6.950;2022-07-30T13:13:22;2.40;;;1.40;;
65187;SDS011;51775;51.148;6.950;2022-07-30T13:15:57;2.25;;;1.45;;
65187;SDS011;51775;51.148;6.950;2022-07-30T13:18:27;2.10;;;1.30;;
65187;SDS011;51775;51.148;6.950;2022-07-30T13:20:53;2.78;;;1.55;;
65187;SDS011;51775;51.148;6.950;2022-07-30T13:23:19;1.90;;;1.30;;
65187;SDS011;51775;51.148;6.950;2022-07-30T13:25:44;1.60;;;1.20;;
65187;SDS011;51775;51.148;6.950;2022-07-30T13:28:09;2.17;;;1.35;;
65187;SDS011;51775;51.148;6.950;2022-07-30T13:30:35;1.67;;;1.15;;
65187;SDS011;51775;51.148;6.950;2022-07-30T13:33:00;1.83;;;1.35;;
65187;SDS011;51775;51.148;6.950;2022-07-30T13:35:25;8.38;;;1.63;;
65187;SDS011;51775;51.148;6.950;2022-07-30T13:37:51;13.40;;;1.63;;
65187;SDS011;51775;51.148;6.950;2022-07-30T13:40:16;3.28;;;1.65;;
65187;SDS011;51775;51.148;6.950;2022-07-30T13:42:41;3.47;;;1.63;;
65187;SDS011;51775;51.148;6.950;2022-07-30T13:45:07;8.13;;;1.40;;
65187;SDS011;51775;51.148;6.950;2022-07-30T13:47:33;2.75;;;1.40;;
65187;SDS011;51775;51.148;6.950;2022-07-30T13:49:58;6.40;;;1.52;;
65187;SDS011;51775;51.148;6.950;2022-07-30T13:52:23;2.35;;;1.45;;
65187;SDS011;51775;51.148;6.950;2022-07-30T13:54:49;2.45;;;1.30;;
65187;SDS011;51775;51.148;6.950;2022-07-30T13:57:14;2.20;;;1.40;;
65187;SDS011;51775;51.148;6.950;2022-07-30T13:59:39;5.15;;;1.63;;
65187;SDS011;51775;51.148;6.950;2022-07-30T14:02:05;4.38;;;1.50;;
65187;SDS011;51775;51.148;6.950;2022-07-30T14:04:30;4.50;;;1.67;;
65187;SDS011;51775;51.148;6.950;2022-07-30T14:06:55;5.80;;;1.58;;
65187;SDS011;51775;51.148;6.950;2022-07-30T14:09:21;2.78;;;1.27;;
65187;SDS011;51775;51.148;6.950;2022-07-30T14:11:46;5.25;;;1.73;;
65187;SDS011;51775;51.148;6.950;2022-07-30T14:14:11;14.52;;;2.30;;
65187;SDS011;51775;51.148;6.950;2022-07-30T14:16:37;17.23;;;2.20;;
65187;SDS011;51775;51.148;6.950;2022-07-30T14:19:03;6.93;;;1.42;;
65187;SDS011;51775;51.148;6.950;2022-07-30T14:21:30;9.00;;;1.60;;
65187;SDS011;51775;51.148;6.950;2022-07-30T14:23:55;11.35;;;1.58;;
65187;SDS011;51775;51.148;6.950;2022-07-30T14:26:20;10.20;;;2.13;;
65187;SDS011;51775;51.148;6.950;2022-07-30T14:28:46;5.30;;;1.73;;
65187;SDS011;51775;51.148;6.950;2022-07-30T14:31:11;9.70;;;1.98;;
65187;SDS011;51775;51.148;6.950;2022-07-30T14:33:36;5.47;;;1.60;;
65187;SDS011;51775;51.148;6.950;2022-07-30T14:36:02;6.57;;;1.55;;
65187;SDS011;51775;51.148;6.950;2022-07-30T14:38:27;5.22;;;1.40;;
65187;SDS011;51775;51.148;6.950;2022-07-30T14:40:52;6.97;;;1.40;;
65187;SDS011;51775;51.148;6.950;2022-07-30T14:43:18;6.32;;;1.48;;
65187;SDS011;51775;51.148;6.950;2022-07-30T14:45:43;4.23;;;1.40;;
65187;SDS011;51775;51.148;6.950;2022-07-30T14:48:08;5.38;;;1.35;;
65187;SDS011;51775;51.148;6.950;2022-07-30T14:50:34;7.18;;;1.80;;
65187;SDS011;51775;51.148;6.950;2022-07-30T14:52:59;4.03;;;1.30;;
65187;SDS011;51775;51.148;6.950;2022-07-30T14:55:24;6.00;;;1.50;;
65187;SDS011;51775;51.148;6.950;2022-07-30T14:57:50;4.30;;;1.45;;
65187;SDS011;51775;51.148;6.950;2022-07-30T15:00:15;5.80;;;1.60;;
65187;SDS011;51775;51.148;6.950;2022-07-30T15:02:41;4.57;;;1.40;;
65187;SDS011;51775;51.148;6.950;2022-07-30T15:05:06;3.72;;;1.23;;
65187;SDS011;51775;51.148;6.950;2022-07-30T15:07:32;4.13;;;1.40;;
65187;SDS011;51775;51.148;6.950;2022-07-30T15:09:57;3.63;;;1.30;;
65187;SDS011;51775;51.148;6.950;2022-07-30T15:12:23;5.53;;;1.23;;
65187;SDS011;51775;51.148;6.950;2022-07-30T15:14:50;4.40;;;1.40;;
65187;SDS011;51775;51.148;6.950;2022-07-30T15:17:15;2.53;;;1.20;;
65187;SDS011;51775;51.148;6.950;2022-07-30T15:19:40;4.53;;;1.48;;
65187;SDS011;51775;51.148;6.950;2022-07-30T15:22:06;2.13;;;1.10;;
65187;SDS011;51775;51.148;6.950;2022-07-30T15:24:31;3.53;;;1.45;;
65187;SDS011;51775;51.148;6.950;2022-07-30T15:26:57;3.80;;;1.10;;
65187;SDS011;51775;51.148;6.950;2022-07-30T15:29:23;3.70;;;1.20;;
65187;SDS011;51775;51.148;6.950;2022-07-30T15:31:51;3.53;;;1.30;;
65187;SDS011;51775;51.148;6.950;2022-07-30T15:34:17;4.00;;;1.10;;
65187;SDS011;51775;51.148;6.950;2022-07-30T15:36:42;3.13;;;1.15;;